createdAt,value
2018-10-01T00:01:00.555Z,89.04
2018-10-01T00:03:28.630Z,89.12
2018-10-01T00:05:56.955Z,89.81
2018-10-01T00:08:25.008Z,89.89
2018-10-01T00:10:53.094Z,90.19
2018-10-01T00:13:21.181Z,89.95
2018-10-01T00:15:49.259Z,89.46
2018-10-01T00:18:17.504Z,90.22
2018-10-01T00:20:51.157Z,90.34
2018-10-01T00:23:19.217Z,90.99
2018-10-01T00:25:47.560Z,90.26
2018-10-01T00:28:15.677Z,90.21
2018-10-01T00:30:43.998Z,90.76
2018-10-01T00:33:12.088Z,90.11
2018-10-01T00:35:40.133Z,91.30
2018-10-01T00:38:08.272Z,91.17
2018-10-01T00:40:36.381Z,91.20
2018-10-01T00:43:04.488Z,91.82
2018-10-01T00:45:32.572Z,91.44
2018-10-01T00:48:00.639Z,90.98
2018-10-01T00:50:28.757Z,91.27
2018-10-01T00:52:56.783Z,91.74
2018-10-01T00:55:24.988Z,91.46
2018-10-01T00:57:53.150Z,92.08
2018-10-01T01:00:21.234Z,91.38
2018-10-01T01:02:49.407Z,91.34
2018-10-01T01:05:17.785Z,91.83
2018-10-01T01:07:45.990Z,92.56
2018-10-01T01:10:14.142Z,92.02
2018-10-01T01:12:42.330Z,92.15
2018-10-01T01:15:10.459Z,92.16
2018-10-01T01:17:38.541Z,91.24
2018-10-01T01:20:06.717Z,92.24
2018-10-01T01:22:35.099Z,91.36
2018-10-01T01:25:03.103Z,91.37
2018-10-01T01:27:31.106Z,91.50
2018-10-01T01:29:59.355Z,92.15
2018-10-01T01:32:27.465Z,91.08
2018-10-01T01:34:55.516Z,91.56
2018-10-01T01:37:23.584Z,91.92
2018-10-01T01:39:51.684Z,91.57
2018-10-01T01:42:19.770Z,91.38
2018-10-01T01:44:47.751Z,91.35
2018-10-01T01:47:15.823Z,91.75
2018-10-01T01:49:43.889Z,91.70
2018-10-01T01:52:11.987Z,91.59
2018-10-01T01:54:40.005Z,91.24
2018-10-01T01:57:08.061Z,91.44
2018-10-01T01:59:36.146Z,91.89
2018-10-01T02:02:04.264Z,91.34
2018-10-01T02:04:32.578Z,91.72
2018-10-01T02:07:00.627Z,91.76
2018-10-01T02:09:28.745Z,91.86
2018-10-01T02:11:57.898Z,91.93
2018-10-01T02:14:25.945Z,90.51
2018-10-01T02:16:54.054Z,91.59
2018-10-01T02:19:22.287Z,91.86
2018-10-01T02:21:50.379Z,91.78
2018-10-01T02:24:18.477Z,91.30
2018-10-01T02:26:46.595Z,90.47
2018-10-01T02:29:14.690Z,90.59
2018-10-01T02:31:42.830Z,90.84
2018-10-01T02:34:10.878Z,90.93
2018-10-01T02:36:38.971Z,91.58
2018-10-01T02:39:09.982Z,91.31
2018-10-01T02:41:38.051Z,91.70
2018-10-01T02:44:06.377Z,91.30
2018-10-01T02:46:34.460Z,92.18
2018-10-01T02:49:02.856Z,91.50
2018-10-01T02:51:31.088Z,90.99
2018-10-01T02:54:04.573Z,92.27
2018-10-01T02:56:32.736Z,92.67
2018-10-01T02:59:00.988Z,92.03
2018-10-01T03:01:29.315Z,92.58
2018-10-01T03:03:57.780Z,91.90
2018-10-01T03:06:25.927Z,91.94
2018-10-01T03:08:54.366Z,91.48
2018-10-01T03:11:22.552Z,92.03
2018-10-01T03:13:50.594Z,92.50
2018-10-01T03:16:18.756Z,91.83
2018-10-01T03:18:46.786Z,91.63
2018-10-01T03:21:14.985Z,91.93
2018-10-01T03:23:43.015Z,92.87
2018-10-01T03:26:11.236Z,93.05
2018-10-01T03:28:39.334Z,91.95
2018-10-01T03:31:07.400Z,91.54
2018-10-01T03:33:35.445Z,91.87
2018-10-01T03:36:03.599Z,92.69
2018-10-01T03:38:31.801Z,92.46
2018-10-01T03:41:02.764Z,93.27
2018-10-01T03:43:31.118Z,92.47
2018-10-01T03:46:00.186Z,92.81
2018-10-01T03:48:28.421Z,93.07
2018-10-01T03:50:56.532Z,92.81
2018-10-01T03:53:24.624Z,93.03
2018-10-01T03:55:52.771Z,92.86
2018-10-01T03:58:20.812Z,93.25
2018-10-01T04:00:48.923Z,92.40
2018-10-01T04:03:17.070Z,92.59
2018-10-01T04:05:45.118Z,92.41
2018-10-01T04:08:13.428Z,92.28
2018-10-01T04:10:41.439Z,92.64
2018-10-01T04:13:09.776Z,93.68
2018-10-01T04:15:37.915Z,93.07
2018-10-01T04:18:07.019Z,93.33
2018-10-01T04:20:35.173Z,93.71
2018-10-01T04:23:03.491Z,93.26
2018-10-01T04:25:33.257Z,92.48
2018-10-01T04:28:01.931Z,92.16
2018-10-01T04:30:30.081Z,92.47
2018-10-01T04:32:59.282Z,92.64
2018-10-01T04:35:28.341Z,92.88
2018-10-01T04:37:56.987Z,93.29
2018-10-01T04:40:25.357Z,93.68
2018-10-01T04:42:53.689Z,93.33
2018-10-01T04:45:21.828Z,92.84
2018-10-01T04:47:50.021Z,92.98
2018-10-01T04:50:18.421Z,93.29
2018-10-01T04:52:46.595Z,93.18
2018-10-01T04:55:14.695Z,92.45
2018-10-01T04:57:42.887Z,92.86
2018-10-01T05:00:11.278Z,92.96
2018-10-01T05:02:39.454Z,93.27
2018-10-01T05:05:07.622Z,93.46
2018-10-01T05:07:35.972Z,93.64
2018-10-01T05:10:04.966Z,93.57
2018-10-01T05:12:33.418Z,93.86
2018-10-01T05:15:01.746Z,93.41
2018-10-01T05:17:30.502Z,93.70
2018-10-01T05:19:58.903Z,93.12
2018-10-01T05:22:27.426Z,92.47
2018-10-01T05:24:56.123Z,91.93
2018-10-01T05:27:24.680Z,91.81
2018-10-01T05:29:53.165Z,91.84
2018-10-01T05:32:21.419Z,93.01
2018-10-01T05:34:50.323Z,92.03
2018-10-01T05:37:19.072Z,91.27
2018-10-01T05:39:47.564Z,90.84
2018-10-01T05:42:16.085Z,90.47
2018-10-01T05:44:44.469Z,91.43
2018-10-01T05:47:12.713Z,90.16
2018-10-01T05:49:40.893Z,89.03
2018-10-01T05:52:08.955Z,86.45
2018-10-01T05:54:37.364Z,83.34
2018-10-01T05:57:05.538Z,82.78
2018-10-01T05:59:33.791Z,81.68
2018-10-01T06:02:02.533Z,82.23
2018-10-01T06:04:31.987Z,84.41
2018-10-01T06:07:00.489Z,82.86
2018-10-01T06:09:28.762Z,81.40
2018-10-01T06:11:56.945Z,79.99
2018-10-01T06:14:25.153Z,78.89
2018-10-01T06:16:53.500Z,77.45
2018-10-01T06:19:21.635Z,77.78
2018-10-01T06:21:49.866Z,77.18
2018-10-01T06:24:18.184Z,77.65
2018-10-01T06:26:46.463Z,76.66
2018-10-01T06:29:14.889Z,77.60
2018-10-01T06:31:43.000Z,77.82
2018-10-01T06:34:11.138Z,78.08
2018-10-01T06:36:39.240Z,78.10
2018-10-01T06:39:09.233Z,77.94
2018-10-01T06:41:37.879Z,77.83
2018-10-01T06:44:06.252Z,76.77
2018-10-01T06:46:34.588Z,76.06
2018-10-01T06:49:02.817Z,74.78
2018-10-01T06:51:33.624Z,72.20
2018-10-01T06:54:02.479Z,73.62
2018-10-01T06:56:30.884Z,73.79
2018-10-01T06:58:58.937Z,73.51
2018-10-01T07:01:26.975Z,72.08
2018-10-01T07:03:55.178Z,71.40
2018-10-01T07:06:23.201Z,70.91
2018-10-01T07:08:51.372Z,70.01
2018-10-01T07:11:19.609Z,71.74
2018-10-01T07:13:47.620Z,70.42
2018-10-01T07:16:16.340Z,69.08
2018-10-01T07:18:44.456Z,68.02
2018-10-01T07:21:12.833Z,66.78
2018-10-01T07:23:40.993Z,69.14
2018-10-01T07:26:09.205Z,68.59
2018-10-01T07:28:37.383Z,68.03
2018-10-01T07:31:05.548Z,67.79
2018-10-01T07:33:33.746Z,68.24
2018-10-01T07:36:02.007Z,67.92
2018-10-01T07:38:30.396Z,65.25
2018-10-01T07:40:58.477Z,65.14
2018-10-01T07:43:26.703Z,64.91
2018-10-01T07:45:54.778Z,67.17
2018-10-01T07:48:22.929Z,66.34
2018-10-01T07:50:51.292Z,64.76
2018-10-01T07:53:19.618Z,64.71
2018-10-01T07:55:47.957Z,62.51
2018-10-01T07:58:16.258Z,62.72
2018-10-01T08:00:44.388Z,63.28
2018-10-01T08:03:12.531Z,62.65
2018-10-01T08:05:40.836Z,61.08
2018-10-01T08:08:09.351Z,62.50
2018-10-01T08:10:37.576Z,65.21
2018-10-01T08:13:05.878Z,65.13
2018-10-01T08:15:34.280Z,63.96
2018-10-01T08:18:02.792Z,61.71
2018-10-01T08:20:32.015Z,59.83
2018-10-01T08:23:00.395Z,57.20
2018-10-01T08:25:28.831Z,56.02
2018-10-01T08:27:57.334Z,58.97
2018-10-01T08:30:25.474Z,60.22
2018-10-01T08:32:53.849Z,60.47
2018-10-01T08:35:22.269Z,61.81
2018-10-01T08:37:50.716Z,62.60
2018-10-01T08:40:19.048Z,63.37
2018-10-01T08:42:47.426Z,61.44
2018-10-01T08:45:15.673Z,61.00
2018-10-01T08:47:45.182Z,60.89
2018-10-01T08:50:20.708Z,59.53
2018-10-01T08:53:11.645Z,61.31
2018-10-01T08:55:40.054Z,59.55
2018-10-01T08:58:08.779Z,60.07
2018-10-01T09:00:37.636Z,56.04
2018-10-01T09:03:08.737Z,56.16
2018-10-01T09:05:37.083Z,54.81
2018-10-01T09:08:05.949Z,55.02
2018-10-01T09:10:34.599Z,56.85
2018-10-01T09:13:03.565Z,57.64
2018-10-01T09:15:31.980Z,55.59
2018-10-01T09:18:00.274Z,53.67
2018-10-01T09:20:28.611Z,52.93
2018-10-01T09:22:56.994Z,54.72
2018-10-01T09:25:25.208Z,56.35
2018-10-01T09:27:53.389Z,53.86
2018-10-01T09:30:21.602Z,52.97
2018-10-01T09:32:49.772Z,53.04
2018-10-01T09:35:17.939Z,52.05
2018-10-01T09:37:46.101Z,53.02
2018-10-01T09:40:14.327Z,54.01
2018-10-01T09:42:42.475Z,55.20
2018-10-01T09:45:10.617Z,55.08
2018-10-01T09:47:39.917Z,56.34
2018-10-01T09:50:08.177Z,56.87
2018-10-01T09:52:36.786Z,55.91
2018-10-01T09:55:05.160Z,55.18
2018-10-01T09:57:33.740Z,55.40
2018-10-01T10:00:02.830Z,54.49
2018-10-01T10:02:31.217Z,53.71
2018-10-01T10:04:59.476Z,53.96
2018-10-01T10:07:27.579Z,53.19
2018-10-01T10:09:55.827Z,51.76
2018-10-01T10:12:24.219Z,53.57
2018-10-01T10:14:52.315Z,54.08
2018-10-01T10:17:20.587Z,52.42
2018-10-01T10:19:49.221Z,52.48
2018-10-01T10:22:17.395Z,52.57
2018-10-01T10:24:45.500Z,53.57
2018-10-01T10:27:14.018Z,51.80
2018-10-01T10:29:42.232Z,50.40
2018-10-01T10:32:10.701Z,50.06
2018-10-01T10:34:38.911Z,50.81
2018-10-01T10:37:07.424Z,51.84
2018-10-01T10:39:35.841Z,50.44
2018-10-01T10:42:03.883Z,49.57
2018-10-01T10:44:33.239Z,50.95
2018-10-01T10:47:01.487Z,51.68
2018-10-01T10:49:29.876Z,51.93
2018-10-01T10:51:58.063Z,51.61
2018-10-01T10:54:26.289Z,50.73
2018-10-01T10:56:54.504Z,50.58
2018-10-01T10:59:22.680Z,51.32
2018-10-01T11:01:51.429Z,49.47
2018-10-01T11:04:19.855Z,51.17
2018-10-01T11:06:48.208Z,49.57
2018-10-01T11:09:16.586Z,48.79
2018-10-01T11:11:44.845Z,49.26
2018-10-01T11:14:13.787Z,49.15
2018-10-01T11:16:42.305Z,48.47
2018-10-01T11:19:11.000Z,48.31
2018-10-01T11:21:39.357Z,48.24
2018-10-01T11:24:07.415Z,46.99
2018-10-01T11:26:35.707Z,46.41
2018-10-01T11:29:04.197Z,48.79
2018-10-01T11:31:32.504Z,48.91
2018-10-01T11:34:00.656Z,49.28
2018-10-01T11:36:28.986Z,50.50
2018-10-01T11:38:57.206Z,49.43
2018-10-01T11:41:25.320Z,48.76
2018-10-01T11:43:53.860Z,49.26
2018-10-01T11:46:22.175Z,48.28
2018-10-01T11:48:51.248Z,47.43
2018-10-01T11:51:19.654Z,48.19
2018-10-01T11:53:48.256Z,47.50
2018-10-01T11:56:18.685Z,47.69
2018-10-01T11:58:46.760Z,48.27
2018-10-01T12:01:14.927Z,49.20
2018-10-01T12:03:43.155Z,48.08
2018-10-01T12:06:18.613Z,49.54
2018-10-01T12:08:47.026Z,49.62
2018-10-01T12:11:15.220Z,48.00
2018-10-01T12:13:43.372Z,47.83
2018-10-01T12:16:11.913Z,47.40
2018-10-01T12:18:40.078Z,47.70
2018-10-01T12:21:08.264Z,47.05
2018-10-01T12:23:36.332Z,44.51
2018-10-01T12:26:04.488Z,45.00
2018-10-01T12:28:32.683Z,45.30
2018-10-01T12:31:01.141Z,45.74
2018-10-01T12:33:40.095Z,45.19
2018-10-01T12:36:09.347Z,44.44
2018-10-01T12:38:38.962Z,44.97
2018-10-01T12:41:07.462Z,44.26
2018-10-01T12:43:56.755Z,46.33
2018-10-01T12:46:26.288Z,45.50
2018-10-01T12:48:54.433Z,45.82
2018-10-01T12:51:22.681Z,47.19
2018-10-01T12:53:52.431Z,47.80
2018-10-01T12:56:20.940Z,47.86
2018-10-01T12:58:49.063Z,47.78
2018-10-01T13:01:17.505Z,48.68
2018-10-01T13:03:45.680Z,48.46
2018-10-01T13:06:14.039Z,48.18
2018-10-01T13:08:42.167Z,47.90
2018-10-01T13:11:11.099Z,48.83
2018-10-01T13:13:39.500Z,47.75
2018-10-01T13:16:07.748Z,47.29
2018-10-01T13:18:36.852Z,47.27
2018-10-01T13:21:06.583Z,47.29
2018-10-01T13:23:35.545Z,47.11
2018-10-01T13:26:04.277Z,47.01
2018-10-01T13:28:32.343Z,46.30
2018-10-01T13:31:00.769Z,45.49
2018-10-01T13:33:28.980Z,46.30
2018-10-01T13:35:57.107Z,46.31
2018-10-01T13:38:25.265Z,46.42
2018-10-01T13:40:53.594Z,45.98
2018-10-01T13:43:21.954Z,46.33
2018-10-01T13:45:50.740Z,46.16
2018-10-01T13:48:19.809Z,46.11
2018-10-01T13:50:48.080Z,45.46
2018-10-01T13:53:16.239Z,47.00
2018-10-01T13:55:44.343Z,45.22
2018-10-01T13:58:12.751Z,46.15
2018-10-01T14:00:40.964Z,47.31
2018-10-01T14:03:09.101Z,47.58
2018-10-01T14:05:37.414Z,46.84
2018-10-01T14:08:06.366Z,46.84
2018-10-01T14:10:34.463Z,47.11
2018-10-01T14:13:02.763Z,48.51
2018-10-01T14:15:31.029Z,47.20
2018-10-01T14:17:59.999Z,48.24
2018-10-01T14:20:30.015Z,48.30
2018-10-01T14:23:00.894Z,49.56
2018-10-01T14:25:30.264Z,47.78
2018-10-01T14:28:00.562Z,48.60
2018-10-01T14:30:29.059Z,48.49
2018-10-01T14:32:57.280Z,47.81
2018-10-01T14:35:25.421Z,49.62
2018-10-01T14:37:53.647Z,50.89
2018-10-01T14:40:21.861Z,50.04
2018-10-01T14:42:50.126Z,50.73
2018-10-01T14:45:18.308Z,49.70
2018-10-01T14:47:46.555Z,50.97
2018-10-01T14:50:14.945Z,51.89
2018-10-01T14:52:43.539Z,53.64
2018-10-01T14:55:11.920Z,53.91
2018-10-01T14:57:40.134Z,54.70
2018-10-01T15:00:08.486Z,54.78
2018-10-01T15:02:36.903Z,57.46
2018-10-01T15:05:06.018Z,57.94
2018-10-01T15:07:34.381Z,55.58
2018-10-01T15:10:02.647Z,55.93
2018-10-01T15:12:30.991Z,56.08
2018-10-01T15:14:59.214Z,58.00
2018-10-01T15:17:27.608Z,56.68
2018-10-01T15:19:55.728Z,56.26
2018-10-01T15:22:25.120Z,56.98
2018-10-01T15:24:53.474Z,58.42
2018-10-01T15:27:21.789Z,59.09
2018-10-01T15:29:50.148Z,60.07
2018-10-01T15:32:18.779Z,60.42
2018-10-01T15:34:46.897Z,62.08
2018-10-01T15:37:15.046Z,61.75
2018-10-01T15:39:43.352Z,62.73
2018-10-01T15:42:11.423Z,64.03
2018-10-01T15:44:39.610Z,64.89
2018-10-01T15:47:07.932Z,64.94
2018-10-01T15:49:36.134Z,65.24
2018-10-01T15:52:04.370Z,66.21
2018-10-01T15:54:32.632Z,67.69
2018-10-01T15:57:01.142Z,67.69
2018-10-01T15:59:29.269Z,68.20
2018-10-01T16:01:57.391Z,68.51
2018-10-01T16:04:25.557Z,67.56
2018-10-01T16:06:53.990Z,69.44
2018-10-01T16:09:23.165Z,70.38
2018-10-01T16:11:51.324Z,70.25
2018-10-01T16:14:19.606Z,69.99
2018-10-01T16:16:48.092Z,71.10
2018-10-01T16:19:16.372Z,72.73
2018-10-01T16:21:44.578Z,71.69
2018-10-01T16:24:12.893Z,72.20
2018-10-01T16:26:41.175Z,73.60
2018-10-01T16:29:09.670Z,73.56
2018-10-01T16:31:38.174Z,74.59
2018-10-01T16:34:07.431Z,74.90
2018-10-01T16:36:37.703Z,75.01
2018-10-01T16:39:11.156Z,75.30
2018-10-01T16:41:39.809Z,76.13
2018-10-01T16:44:08.038Z,75.93
2018-10-01T16:46:36.484Z,76.99
2018-10-01T16:49:06.589Z,76.38
2018-10-01T16:51:36.603Z,78.00
2018-10-01T16:54:05.052Z,78.61
2018-10-01T16:56:33.386Z,77.97
2018-10-01T16:59:01.766Z,78.29
2018-10-01T17:01:29.965Z,78.52
2018-10-01T17:03:58.209Z,78.19
2018-10-01T17:06:30.584Z,77.31
2018-10-01T17:08:59.967Z,76.69
2018-10-01T17:11:32.061Z,77.61
2018-10-01T17:14:00.797Z,78.15
2018-10-01T17:16:29.557Z,79.51
2018-10-01T17:18:58.696Z,78.75
2018-10-01T17:21:27.012Z,79.28
2018-10-01T17:23:55.546Z,77.21
2018-10-01T17:26:23.923Z,78.88
2018-10-01T17:28:52.446Z,78.75
2018-10-01T17:31:20.932Z,77.18
2018-10-01T17:33:49.398Z,77.47
2018-10-01T17:36:17.862Z,78.16
2018-10-01T17:38:46.152Z,78.63
2018-10-01T17:41:14.420Z,79.26
2018-10-01T17:43:45.964Z,77.01
2018-10-01T17:46:14.396Z,78.89
2018-10-01T17:48:42.621Z,78.28
2018-10-01T17:51:11.063Z,77.33
2018-10-01T17:53:39.287Z,76.94
2018-10-01T17:56:07.569Z,77.54
2018-10-01T17:58:35.836Z,77.94
2018-10-01T18:01:04.179Z,76.91
2018-10-01T18:03:32.674Z,77.80
2018-10-01T18:06:01.029Z,78.40
2018-10-01T18:08:29.411Z,79.67
2018-10-01T18:10:57.614Z,78.42
2018-10-01T18:13:26.107Z,78.75
2018-10-01T18:15:54.406Z,79.09
2018-10-01T18:18:22.827Z,79.97
2018-10-01T18:20:51.235Z,79.91
2018-10-01T18:23:19.513Z,79.59
2018-10-01T18:25:47.818Z,80.64
2018-10-01T18:28:16.002Z,80.13
2018-10-01T18:30:44.206Z,79.81
2018-10-01T18:33:12.348Z,80.80
2018-10-01T18:35:40.511Z,81.44
2018-10-01T18:38:08.640Z,81.00
2018-10-01T18:40:36.832Z,80.57
2018-10-01T18:43:05.169Z,81.82
2018-10-01T18:45:33.990Z,80.35
2018-10-01T18:48:02.240Z,80.92
2018-10-01T18:50:31.775Z,81.05
2018-10-01T18:52:59.956Z,80.51
2018-10-01T18:55:28.241Z,81.70
2018-10-01T18:57:56.343Z,80.52
2018-10-01T19:00:24.554Z,80.91
2018-10-01T19:02:52.806Z,80.90
2018-10-01T19:05:20.956Z,81.01
2018-10-01T19:07:49.112Z,81.08
2018-10-01T19:10:17.350Z,80.14
2018-10-01T19:12:45.594Z,81.49
2018-10-01T19:15:13.871Z,82.12
2018-10-01T19:17:42.372Z,83.27
2018-10-01T19:20:10.599Z,83.42
2018-10-01T19:22:38.836Z,83.96
2018-10-01T19:25:07.028Z,84.59
2018-10-01T19:27:35.199Z,84.56
2018-10-01T19:30:03.990Z,85.69
2018-10-01T19:32:32.332Z,84.28
2018-10-01T19:35:00.617Z,85.77
2018-10-01T19:37:29.034Z,84.94
2018-10-01T19:39:57.152Z,85.92
2018-10-01T19:42:25.375Z,85.90
2018-10-01T19:44:53.520Z,86.18
2018-10-01T19:47:21.880Z,86.91
2018-10-01T19:49:50.266Z,86.19
2018-10-01T19:52:18.544Z,85.54
2018-10-01T19:54:47.364Z,86.31
2018-10-01T19:57:15.664Z,87.15
2018-10-01T19:59:43.829Z,86.45
2018-10-01T20:02:12.030Z,86.48
2018-10-01T20:04:40.202Z,86.01
2018-10-01T20:07:08.292Z,85.62
2018-10-01T20:09:36.600Z,85.71
2018-10-01T20:12:05.112Z,85.71
2018-10-01T20:14:33.185Z,86.54
2018-10-01T20:17:01.523Z,85.87
2018-10-01T20:19:29.696Z,86.05
2018-10-01T20:21:57.893Z,86.62
2018-10-01T20:24:26.122Z,86.97
2018-10-01T20:26:54.191Z,88.01
2018-10-01T20:29:22.458Z,87.76
2018-10-01T20:31:50.460Z,87.95
2018-10-01T20:34:18.850Z,88.79
2018-10-01T20:36:46.965Z,90.13
2018-10-01T20:39:15.223Z,89.59
2018-10-01T20:41:43.350Z,89.39
2018-10-01T20:44:11.537Z,89.80
2018-10-01T20:46:39.883Z,89.83
2018-10-01T20:49:07.956Z,90.54
2018-10-01T20:51:36.050Z,90.57
2018-10-01T20:54:04.267Z,90.99
2018-10-01T20:56:32.410Z,90.62
2018-10-01T20:59:00.787Z,91.81
2018-10-01T21:01:28.846Z,91.84
2018-10-01T21:03:56.918Z,91.45
2018-10-01T21:06:25.129Z,91.62
2018-10-01T21:08:53.235Z,91.61
2018-10-01T21:11:21.599Z,91.92
2018-10-01T21:13:49.773Z,91.85
2018-10-01T21:16:18.861Z,91.40
2018-10-01T21:18:46.998Z,91.33
2018-10-01T21:21:15.188Z,91.63
2018-10-01T21:23:43.317Z,92.15
2018-10-01T21:26:11.500Z,91.33
2018-10-01T21:28:39.539Z,92.67
2018-10-01T21:31:07.644Z,93.67
2018-10-01T21:33:35.827Z,94.80
2018-10-01T21:36:03.891Z,93.91
2018-10-01T21:38:32.089Z,95.75
2018-10-01T21:41:00.252Z,94.00
2018-10-01T21:43:28.384Z,95.16
2018-10-01T21:45:56.509Z,94.80
2018-10-01T21:48:24.608Z,94.52
2018-10-01T21:50:52.778Z,93.99
2018-10-01T21:53:20.872Z,93.86
2018-10-01T21:55:48.911Z,94.25
2018-10-01T21:58:16.966Z,93.44
2018-10-01T22:00:50.600Z,93.08
2018-10-01T22:03:18.797Z,92.77
2018-10-01T22:05:46.850Z,93.07
2018-10-01T22:08:14.943Z,94.93
2018-10-01T22:10:43.117Z,93.54
2018-10-01T22:13:11.402Z,93.09
2018-10-01T22:15:46.637Z,93.17
2018-10-01T22:18:17.221Z,94.35
2018-10-01T22:20:45.436Z,92.52
2018-10-01T22:23:14.038Z,94.01
2018-10-01T22:25:42.120Z,93.21
2018-10-01T22:28:10.617Z,93.00
2018-10-01T22:30:39.570Z,93.37
2018-10-01T22:33:07.674Z,93.57
2018-10-01T22:35:35.897Z,93.37
2018-10-01T22:38:04.000Z,93.12
2018-10-01T22:40:32.163Z,94.60
2018-10-01T22:43:00.520Z,93.26
2018-10-01T22:45:28.744Z,93.31
2018-10-01T22:47:56.896Z,94.31
2018-10-01T22:50:24.942Z,94.71
2018-10-01T22:52:53.056Z,93.98
2018-10-01T22:55:21.206Z,93.51
2018-10-01T22:57:49.310Z,93.69
2018-10-01T23:00:17.420Z,95.03
2018-10-01T23:02:45.537Z,93.91
2018-10-01T23:05:13.594Z,94.17
2018-10-01T23:07:41.663Z,94.44
2018-10-01T23:10:09.834Z,93.94
2018-10-01T23:12:37.910Z,94.44
2018-10-01T23:15:06.614Z,94.04
2018-10-01T23:17:34.978Z,93.56
2018-10-01T23:20:03.325Z,92.88
2018-10-01T23:22:31.416Z,93.04
2018-10-01T23:24:59.544Z,93.91
2018-10-01T23:27:27.595Z,93.82
2018-10-01T23:29:55.651Z,94.36
2018-10-01T23:32:23.809Z,93.77
2018-10-01T23:34:51.888Z,94.58
2018-10-01T23:37:20.025Z,94.51
2018-10-01T23:39:48.069Z,93.86
2018-10-01T23:42:16.108Z,94.21
2018-10-01T23:44:44.169Z,94.59
2018-10-01T23:47:12.281Z,94.87
2018-10-01T23:49:40.428Z,95.48
2018-10-01T23:52:08.487Z,94.98
2018-10-01T23:54:36.543Z,96.81
2018-10-01T23:57:04.662Z,95.03
2018-10-01T23:59:32.781Z,95.21
